Capitol Logistics 1817

Operating for CJT



CYQM
Greater Moncton International Airport
Moncton, CA
CYYT
St. Johns International Airport
St. Johns, CA

Activity Log

Date Flight Route Aircraft Duration
01/17/2022 CPX1817 YQM Q951 TIGOR TIGOR2 B738 1h 33m
11/06/2021 CPX1817 YQM Q951 TIGOR TIGOR2 B752 1h 36m

Route Details

Aircraft Information
Group: North America Fleet
Types: B738,B752,B762,B763
Route Data
Demand: V
Distance: 498nm
Duration: 1h 17m
Recm'd Route: YQM Q951 TIGOR TIGOR2
Origin Wx: CYQM 270700Z 16012G17KT 12SM -RA FEW027 BKN048 OVC059 09/08 A2998 RMK SC2SC3SC3 PRESFR SLP155
Dest. Wx: CYYT 270700Z 32005KT 15SM BKN050 BKN220 00/M02 A3021 RMK SC6CI1 CI TR SLP239
Notes:

Financial History
Total Freight: 60,355lbs
Average Load: 30,178lbs/flt
Fuel Used: 20,562lbs
Avg. Fuel Used: 10,281lbs/flt
Fuel Expense: $7,668
Avg. Fuel Expense: $3,834
Avg. Fuel Cost: $0.38/lbs
Total Gross Income: $149,680
Pilot Pay: $248
Total Expenses: $19,423
Total Revenue: $122,255
Average Revenue: $74,840.20